Time;durP1;ratioP1;P1;durP2;ratioP2;P2;SDS_P1;SDS_P2;PMS_P1;PMS_P2;Temp;Humidity;BMP_temperature;BMP_pressure;BME280_temperature;BME280_humidity;BME280_pressure;Samples;Min_cycle;Max_cycle;Signal;HPM_P1;HPM_P2
2023/02/23 00:02:39;;;;;;;9.38;5.60;;;;;;;;;;10588391;27;20065;-87
2023/02/23 00:07:44;;;;;;;9.68;5.22;;;;;;;;;;10596320;27;20274;-87
2023/02/23 00:12:49;;;;;;;7.93;5.03;;;;;;;;;;10569203;27;20146;-86
2023/02/23 00:17:53;;;;;;;9.25;5.30;;;;;;;;;;10593730;27;20372;-86
2023/02/23 00:22:58;;;;;;;9.20;4.78;;;;;;;;;;10597893;27;20134;-86
2023/02/23 00:28:01;;;;;;;8.70;5.20;;;;;;;;;;10581537;27;20421;-86
2023/02/23 00:33:06;;;;;;;9.68;4.90;;;;;;;;;;10584639;27;20687;-88
2023/02/23 00:38:11;;;;;;;7.03;4.53;;;;;;;;;;10595694;27;20050;-89
2023/02/23 00:43:17;;;;;;;7.73;4.87;;;;;;;;;;10580862;27;20051;-87
2023/02/23 00:48:24;;;;;;;5.53;3.80;;;;;;;;;;10591751;27;20262;-87
2023/02/23 00:53:33;;;;;;;6.10;4.30;;;;;;;;;;10599554;27;20390;-87
2023/02/23 00:58:36;;;;;;;8.45;4.15;;;;;;;;;;10593946;27;20404;-84
2023/02/23 01:03:41;;;;;;;9.73;4.97;;;;;;;;;;10581481;27;20042;-85
2023/02/23 01:08:48;;;;;;;6.97;5.00;;;;;;;;;;10599227;27;20050;-84
2023/02/23 01:13:55;;;;;;;8.15;4.35;;;;;;;;;;10594047;27;20142;-85
2023/02/23 01:19:00;;;;;;;8.30;5.05;;;;;;;;;;10597231;27;20126;-88
2023/02/23 01:24:06;;;;;;;8.00;4.65;;;;;;;;;;10598275;27;20092;-87
2023/02/23 01:29:12;;;;;;;6.30;4.00;;;;;;;;;;10609987;27;20170;-87
2023/02/23 01:34:16;;;;;;;8.00;4.53;;;;;;;;;;10586918;27;20609;-87
2023/02/23 01:39:21;;;;;;;7.90;4.60;;;;;;;;;;10587719;27;20126;-87
2023/02/23 01:45:13;;;;;;;7.20;4.55;;;;;;;;;;10582776;27;20121;-88
2023/02/23 01:50:20;;;;;;;6.18;3.72;;;;;;;;;;10493435;27;20047;-87
2023/02/23 01:55:28;;;;;;;7.25;4.78;;;;;;;;;;10604670;27;20043;-87
2023/02/23 02:00:35;;;;;;;6.95;3.83;;;;;;;;;;10615675;27;20721;-88
2023/02/23 02:05:44;;;;;;;5.72;4.00;;;;;;;;;;10604827;27;20506;-88
2023/02/23 02:10:54;;;;;;;5.20;3.50;;;;;;;;;;10587518;27;20046;-88
2023/02/23 02:16:17;;;;;;;4.82;3.65;;;;;;;;;;10607561;27;20084;-88
2023/02/23 02:21:50;;;;;;;5.18;3.70;;;;;;;;;;10610709;27;20043;-87
2023/02/23 02:27:07;;;;;;;7.32;3.75;;;;;;;;;;10583214;27;20130;-87
2023/02/23 02:32:31;;;;;;;6.13;3.38;;;;;;;;;;10582907;27;20329;-90
2023/02/23 02:37:49;;;;;;;4.22;3.42;;;;;;;;;;10587101;27;20077;-88
2023/02/23 02:43:08;;;;;;;6.70;3.63;;;;;;;;;;10585887;27;20039;-88
2023/02/23 02:48:18;;;;;;;4.05;3.38;;;;;;;;;;10582931;27;20238;-87
2023/02/23 02:53:30;;;;;;;5.50;3.88;;;;;;;;;;10589121;27;20114;-88
2023/02/23 02:58:34;;;;;;;6.57;4.05;;;;;;;;;;10595587;27;20138;-87
2023/02/23 04:19:21;;;;;;;4.93;3.75;;;;;;;;;;10593510;27;20088;-87
2023/02/23 04:24:24;;;;;;;4.90;3.30;;;;;;;;;;10575330;27;20295;-86
2023/02/23 04:29:29;;;;;;;5.07;3.42;;;;;;;;;;10595805;27;20041;-87
2023/02/23 04:34:33;;;;;;;6.22;3.90;;;;;;;;;;10590328;27;20035;-86
2023/02/23 04:39:36;;;;;;;4.90;3.35;;;;;;;;;;10582775;27;20106;-86
2023/02/23 04:44:41;;;;;;;6.40;3.67;;;;;;;;;;10572910;27;20127;-86
2023/02/23 04:49:45;;;;;;;3.97;3.13;;;;;;;;;;10582498;27;20054;-86
2023/02/23 04:54:49;;;;;;;6.30;3.33;;;;;;;;;;10567222;27;20039;-85
2023/02/23 04:59:53;;;;;;;6.22;3.15;;;;;;;;;;10575638;28;20134;-87
2023/02/23 05:04:57;;;;;;;5.32;3.75;;;;;;;;;;10594812;27;20534;-87
2023/02/23 05:10:00;;;;;;;6.13;4.18;;;;;;;;;;10584288;27;20047;-87
2023/02/23 05:15:06;;;;;;;6.60;4.07;;;;;;;;;;10577144;27;20091;-86
2023/02/23 05:20:11;;;;;;;6.93;4.25;;;;;;;;;;10567483;27;20092;-85
2023/02/23 05:25:15;;;;;;;7.85;4.32;;;;;;;;;;10566428;27;20130;-86
2023/02/23 05:30:20;;;;;;;8.13;4.60;;;;;;;;;;10587738;27;20473;-85
2023/02/23 05:35:24;;;;;;;6.20;4.07;;;;;;;;;;10595249;27;20199;-85
2023/02/23 05:40:27;;;;;;;5.88;3.95;;;;;;;;;;10569398;27;20054;-84
2023/02/23 05:45:33;;;;;;;6.85;4.05;;;;;;;;;;10567773;27;20042;-84
2023/02/23 05:50:37;;;;;;;5.95;3.95;;;;;;;;;;10569364;27;20043;-84
2023/02/23 05:55:41;;;;;;;7.53;3.33;;;;;;;;;;10585496;27;20417;-86
2023/02/23 06:00:45;;;;;;;6.50;3.67;;;;;;;;;;10596949;27;20047;-86
2023/02/23 06:05:53;;;;;;;5.50;3.28;;;;;;;;;;10595970;27;20047;-89
2023/02/23 06:10:56;;;;;;;5.13;3.25;;;;;;;;;;10614316;27;20502;-89
2023/02/23 06:16:02;;;;;;;5.13;3.47;;;;;;;;;;10622058;27;20126;-87
2023/02/23 06:21:06;;;;;;;3.23;2.93;;;;;;;;;;10590957;27;20471;-85
2023/02/23 06:26:09;;;;;;;5.80;3.40;;;;;;;;;;10583922;27;20092;-85
2023/02/23 06:31:14;;;;;;;5.70;3.50;;;;;;;;;;10581920;27;20045;-85
2023/02/23 06:36:18;;;;;;;5.97;3.25;;;;;;;;;;10587815;27;20096;-87
2023/02/23 06:41:22;;;;;;;5.90;3.35;;;;;;;;;;10602828;27;20069;-88
2023/02/23 06:46:27;;;;;;;4.72;3.25;;;;;;;;;;10599819;27;20080;-87
2023/02/23 06:51:31;;;;;;;3.97;2.95;;;;;;;;;;10593346;27;20035;-86
2023/02/23 06:56:34;;;;;;;6.10;3.63;;;;;;;;;;10587835;27;20466;-86
2023/02/23 07:01:39;;;;;;;4.82;3.38;;;;;;;;;;10574752;27;20043;-84
2023/02/23 07:06:42;;;;;;;4.50;3.00;;;;;;;;;;10589377;27;20284;-83
2023/02/23 07:11:45;;;;;;;4.47;2.95;;;;;;;;;;10590682;27;20047;-86
2023/02/23 07:16:50;;;;;;;5.63;3.33;;;;;;;;;;10572276;27;20047;-84
2023/02/23 07:21:54;;;;;;;4.57;3.35;;;;;;;;;;10586793;27;20120;-85
2023/02/23 07:26:57;;;;;;;5.85;3.58;;;;;;;;;;10582668;27;20529;-85
2023/02/23 07:32:02;;;;;;;7.50;4.47;;;;;;;;;;10584319;27;20047;-85
2023/02/23 07:37:06;;;;;;;6.35;3.83;;;;;;;;;;10579148;27;20088;-85
2023/02/23 07:42:09;;;;;;;4.50;3.30;;;;;;;;;;10574450;27;20067;-85
2023/02/23 07:47:14;;;;;;;6.65;3.38;;;;;;;;;;10577535;27;20031;-85
2023/02/23 07:52:18;;;;;;;4.97;3.40;;;;;;;;;;10591491;27;20502;-85
2023/02/23 07:57:22;;;;;;;4.55;3.25;;;;;;;;;;10575428;27;20778;-85
2023/02/23 08:02:31;;;;;;;7.70;4.40;;;;;;;;;;10583137;27;20122;-89
2023/02/23 08:07:34;;;;;;;5.68;4.30;;;;;;;;;;10588369;27;20123;-89
2023/02/23 08:12:38;;;;;;;6.75;4.72;;;;;;;;;;10585874;27;20051;-87
2023/02/23 08:17:43;;;;;;;7.68;5.00;;;;;;;;;;10579787;27;20134;-87
2023/02/23 08:22:46;;;;;;;8.40;5.57;;;;;;;;;;10596988;27;20039;-87
2023/02/23 08:27:52;;;;;;;7.50;4.73;;;;;;;;;;10591660;27;20735;-87
2023/02/23 08:33:00;;;;;;;6.30;3.97;;;;;;;;;;10576368;27;20414;-87
2023/02/23 08:38:03;;;;;;;4.25;3.72;;;;;;;;;;10589872;27;20123;-85
2023/02/23 08:43:09;;;;;;;6.68;4.28;;;;;;;;;;10588035;27;20047;-87
2023/02/23 08:48:14;;;;;;;6.20;3.97;;;;;;;;;;10610426;27;20039;-85
2023/02/23 08:53:18;;;;;;;5.75;4.15;;;;;;;;;;10606537;27;20043;-85
2023/02/23 08:58:23;;;;;;;6.65;3.85;;;;;;;;;;10592151;27;20521;-87
2023/02/23 09:03:30;;;;;;;8.37;6.10;;;;;;;;;;10595898;27;20065;-86
2023/02/23 09:08:34;;;;;;;4.53;3.47;;;;;;;;;;10602549;27;20071;-87
2023/02/23 09:13:38;;;;;;;5.57;3.75;;;;;;;;;;10614468;27;20039;-86
2023/02/23 09:18:43;;;;;;;4.55;3.83;;;;;;;;;;10606123;27;20045;-87
2023/02/23 09:23:47;;;;;;;6.25;3.30;;;;;;;;;;10596279;27;20215;-86
2023/02/23 09:28:51;;;;;;;3.67;3.10;;;;;;;;;;10596866;27;20062;-87
2023/02/23 09:33:56;;;;;;;3.30;2.45;;;;;;;;;;10619258;27;20043;-86
2023/02/23 09:39:00;;;;;;;3.60;2.70;;;;;;;;;;10592699;27;20047;-87
2023/02/23 09:44:10;;;;;;;3.00;2.55;;;;;;;;;;10624876;27;20042;-87
2023/02/23 09:49:19;;;;;;;5.50;3.40;;;;;;;;;;10609406;27;20038;-86
2023/02/23 09:54:25;;;;;;;6.25;4.70;;;;;;;;;;10597902;27;20099;-86
2023/02/23 09:59:29;;;;;;;4.30;3.67;;;;;;;;;;10600071;27;20114;-86
2023/02/23 10:04:40;;;;;;;4.80;3.60;;;;;;;;;;10598816;27;20186;-86
2023/02/23 10:10:01;;;;;;;5.82;3.88;;;;;;;;;;10628131;27;20031;-88
2023/02/23 10:15:16;;;;;;;7.40;5.20;;;;;;;;;;10613733;27;20119;-88
2023/02/23 10:20:27;;;;;;;7.40;6.35;;;;;;;;;;10627899;27;20065;-89
2023/02/23 10:25:35;;;;;;;9.68;6.60;;;;;;;;;;10625498;27;20058;-88
2023/02/23 10:30:41;;;;;;;8.43;5.97;;;;;;;;;;10614773;27;20047;-88
2023/02/23 10:35:49;;;;;;;;;;;;;;;;;;10616098;27;20046;-87
2023/02/23 10:40:56;;;;;;;9.45;6.47;;;;;;;;;;10592863;27;20446;-88
2023/02/23 10:46:00;;;;;;;11.20;7.55;;;;;;;;;;10571720;28;20054;-89
2023/02/23 10:51:18;;;;;;;8.38;5.35;;;;;;;;;;10585004;28;20047;-89
2023/02/23 10:56:23;;;;;;;13.13;9.73;;;;;;;;;;10585830;28;20050;-91
2023/02/23 11:01:37;;;;;;;15.68;11.45;;;;;;;;;;10600581;27;20139;-90
2023/02/23 11:06:46;;;;;;;11.48;8.05;;;;;;;;;;10592976;28;20417;-90
2023/02/23 11:11:57;;;;;;;9.63;5.80;;;;;;;;;;10568229;28;20132;-89
2023/02/23 11:17:02;;;;;;;7.32;5.60;;;;;;;;;;10577489;28;20066;-89
2023/02/23 11:22:11;;;;;;;9.85;6.90;;;;;;;;;;10600645;28;20066;-88
2023/02/23 11:27:22;;;;;;;17.55;11.38;;;;;;;;;;10562078;27;20097;-89
2023/02/23 11:32:30;;;;;;;11.75;8.48;;;;;;;;;;10556350;28;20063;-88
2023/02/23 11:37:36;;;;;;;14.40;10.07;;;;;;;;;;10576499;28;20040;-89
2023/02/23 11:42:52;;;;;;;10.82;8.07;;;;;;;;;;10576805;28;20036;-89
2023/02/23 11:47:58;;;;;;;;;;;;;;;;;;10573489;28;20532;-90
2023/02/23 11:53:06;;;;;;;7.53;5.23;;;;;;;;;;10575959;28;19965;-90
2023/02/23 11:58:21;;;;;;;11.48;8.65;;;;;;;;;;10570191;28;20043;-88
2023/02/23 12:03:27;;;;;;;8.80;7.22;;;;;;;;;;10568956;28;20118;-91
2023/02/23 12:08:45;;;;;;;12.82;8.63;;;;;;;;;;10566401;28;20048;-87
2023/02/23 12:13:52;;;;;;;7.25;5.32;;;;;;;;;;10550374;28;20066;-88
2023/02/23 12:18:59;;;;;;;16.65;10.85;;;;;;;;;;10548610;28;20603;-87
2023/02/23 12:24:18;;;;;;;13.95;9.77;;;;;;;;;;10547723;28;20138;-87
2023/02/23 12:29:29;;;;;;;10.70;7.70;;;;;;;;;;10548208;28;20035;-87
2023/02/23 12:34:43;;;;;;;9.05;6.78;;;;;;;;;;10549249;28;20134;-87
2023/02/23 12:39:57;;;;;;;8.57;6.43;;;;;;;;;;10548249;28;20040;-87
2023/02/23 12:45:05;;;;;;;7.50;5.13;;;;;;;;;;10562629;27;20130;-87
2023/02/23 12:50:18;;;;;;;8.50;6.57;;;;;;;;;;10588824;27;20396;-87
2023/02/23 12:55:40;;;;;;;10.00;7.35;;;;;;;;;;10590584;27;20050;-87
2023/02/23 13:00:59;;;;;;;9.40;6.60;;;;;;;;;;10581950;27;20051;-87
2023/02/23 13:06:08;;;;;;;10.07;8.10;;;;;;;;;;10583897;27;20861;-87
2023/02/23 13:11:23;;;;;;;9.35;7.35;;;;;;;;;;10576828;27;20049;-87
2023/02/23 13:16:34;;;;;;;7.45;5.65;;;;;;;;;;10576715;27;20123;-87
2023/02/23 13:21:41;;;;;;;8.43;6.72;;;;;;;;;;10575519;27;20474;-87
2023/02/23 13:26:53;;;;;;;8.70;5.88;;;;;;;;;;10585475;27;20061;-87
2023/02/23 13:32:00;;;;;;;8.02;5.80;;;;;;;;;;10582420;27;20039;-86
2023/02/23 13:37:06;;;;;;;9.57;7.45;;;;;;;;;;10586025;27;20413;-87
2023/02/23 13:42:26;;;;;;;;;;;;;;;;;;10580935;27;20075;-89
2023/02/23 13:47:41;;;;;;;11.05;6.78;;;;;;;;;;10590617;27;19951;-87
2023/02/23 13:52:46;;;;;;;9.45;6.38;;;;;;;;;;10610465;27;20130;-88
2023/02/23 13:57:49;;;;;;;14.50;8.73;;;;;;;;;;10598054;27;20123;-89
2023/02/23 14:02:55;;;;;;;10.02;6.40;;;;;;;;;;10605833;27;20045;-89
2023/02/23 14:08:03;;;;;;;5.97;4.40;;;;;;;;;;10621825;27;20058;-90
2023/02/23 14:13:24;;;;;;;8.52;5.68;;;;;;;;;;10609219;27;20042;-86
2023/02/23 14:18:32;;;;;;;6.65;4.88;;;;;;;;;;10598718;27;20122;-89
2023/02/23 14:23:45;;;;;;;6.28;4.60;;;;;;;;;;10600921;27;20096;-88
2023/02/23 14:29:11;;;;;;;12.98;8.75;;;;;;;;;;10588628;27;20497;-88
2023/02/23 14:34:21;;;;;;;7.50;5.43;;;;;;;;;;10586450;27;20135;-89
2023/02/23 14:39:27;;;;;;;10.50;6.90;;;;;;;;;;10602718;27;20043;-88
2023/02/23 14:44:35;;;;;;;8.77;5.93;;;;;;;;;;10598216;27;20074;-86
2023/02/23 14:49:46;;;;;;;6.45;4.97;;;;;;;;;;10599806;27;20402;-87
2023/02/23 14:54:50;;;;;;;9.23;6.03;;;;;;;;;;10620312;27;20428;-88
2023/02/23 14:59:59;;;;;;;8.43;6.18;;;;;;;;;;10593356;27;20447;-86
2023/02/23 15:05:22;;;;;;;7.15;5.13;;;;;;;;;;10613209;27;20541;-86
2023/02/23 15:10:31;;;;;;;5.72;4.10;;;;;;;;;;10595674;27;20667;-88
2023/02/23 15:15:35;;;;;;;8.45;5.28;;;;;;;;;;10599062;27;20074;-89
2023/02/23 15:20:42;;;;;;;10.90;6.78;;;;;;;;;;10594240;27;20601;-88
2023/02/23 15:25:49;;;;;;;7.43;4.90;;;;;;;;;;10605098;27;20402;-88
2023/02/23 15:30:55;;;;;;;8.10;5.50;;;;;;;;;;10586596;27;20077;-90
2023/02/23 15:36:07;;;;;;;8.10;5.77;;;;;;;;;;10597889;27;20095;-91
2023/02/23 15:41:18;;;;;;;6.28;4.78;;;;;;;;;;10595013;27;20051;-88
2023/02/23 15:46:28;;;;;;;6.40;4.22;;;;;;;;;;10609235;27;20494;-89
2023/02/23 15:51:37;;;;;;;7.25;5.18;;;;;;;;;;10614411;27;20071;-88
2023/02/23 15:56:45;;;;;;;6.65;4.53;;;;;;;;;;10579991;27;20401;-86
2023/02/23 16:01:52;;;;;;;6.63;4.70;;;;;;;;;;10568858;27;20130;-86
2023/02/23 16:07:10;;;;;;;7.78;5.72;;;;;;;;;;10584447;27;20047;-87
2023/02/23 16:12:17;;;;;;;10.48;6.25;;;;;;;;;;10577982;27;20031;-86
2023/02/23 16:17:28;;;;;;;14.68;9.63;;;;;;;;;;10608687;27;20606;-89
2023/02/23 16:22:34;;;;;;;11.35;7.93;;;;;;;;;;10603105;27;20043;-88
2023/02/23 16:27:38;;;;;;;7.73;5.30;;;;;;;;;;10597858;27;20053;-88
2023/02/23 16:32:43;;;;;;;9.23;6.22;;;;;;;;;;10591983;27;20108;-88
2023/02/23 16:37:57;;;;;;;7.82;5.10;;;;;;;;;;10598029;27;20051;-88
2023/02/23 16:43:01;;;;;;;13.85;9.38;;;;;;;;;;10585129;27;20422;-85
2023/02/23 16:48:10;;;;;;;11.98;8.45;;;;;;;;;;10569236;27;20131;-85
2023/02/23 16:53:15;;;;;;;9.30;6.45;;;;;;;;;;10574065;27;20586;-86
2023/02/23 16:58:23;;;;;;;9.37;6.63;;;;;;;;;;10585540;27;20039;-86
2023/02/23 17:03:29;;;;;;;10.55;7.97;;;;;;;;;;10587634;27;20099;-86
2023/02/23 17:08:35;;;;;;;11.20;8.18;;;;;;;;;;10588324;28;20052;-86
2023/02/23 17:13:40;;;;;;;10.73;7.82;;;;;;;;;;10596474;28;20045;-87
2023/02/23 17:18:44;;;;;;;13.75;7.70;;;;;;;;;;10610884;27;20139;-88
2023/02/23 17:23:50;;;;;;;9.40;6.93;;;;;;;;;;10599426;27;20416;-88
2023/02/23 17:28:53;;;;;;;11.77;7.43;;;;;;;;;;10603890;27;20043;-88
2023/02/23 17:33:57;;;;;;;10.45;7.28;;;;;;;;;;10599207;27;20366;-88
2023/02/23 17:39:02;;;;;;;10.77;6.60;;;;;;;;;;10592612;27;20043;-88
2023/02/23 17:44:06;;;;;;;10.63;6.50;;;;;;;;;;10611135;27;20047;-89
2023/02/23 17:49:09;;;;;;;8.20;5.50;;;;;;;;;;10619696;27;20043;-88
2023/02/23 17:54:14;;;;;;;7.75;5.40;;;;;;;;;;10593415;27;20824;-91
2023/02/23 17:59:18;;;;;;;10.17;7.00;;;;;;;;;;10602341;27;20108;-88
2023/02/23 18:04:22;;;;;;;8.80;5.47;;;;;;;;;;10601640;27;20560;-87
2023/02/23 18:09:27;;;;;;;8.50;6.05;;;;;;;;;;10603103;27;20063;-88
2023/02/23 18:14:31;;;;;;;10.50;6.70;;;;;;;;;;10594967;27;20050;-90
2023/02/23 18:19:35;;;;;;;11.88;7.38;;;;;;;;;;10589981;27;20063;-90
2023/02/23 18:24:41;;;;;;;13.13;8.80;;;;;;;;;;10599724;27;20712;-87
2023/02/23 18:29:46;;;;;;;12.05;7.82;;;;;;;;;;10573991;27;20131;-87
2023/02/23 18:34:50;;;;;;;17.50;9.93;;;;;;;;;;10570029;27;20174;-88
2023/02/23 18:39:56;;;;;;;12.40;8.50;;;;;;;;;;10596042;27;20122;-87
2023/02/23 18:45:00;;;;;;;12.73;8.63;;;;;;;;;;10588415;27;20035;-89
2023/02/23 18:50:06;;;;;;;12.18;7.20;;;;;;;;;;10572905;27;20414;-88
2023/02/23 18:55:11;;;;;;;;;;;;;;;;;;10575777;27;20062;-87
2023/02/23 19:00:16;;;;;;;11.10;8.35;;;;;;;;;;10576357;27;19923;-90
2023/02/23 19:05:20;;;;;;;18.58;10.73;;;;;;;;;;10591764;27;20088;-87
2023/02/23 19:10:29;;;;;;;18.02;10.60;;;;;;;;;;10580984;27;20520;-87
2023/02/23 19:15:33;;;;;;;24.00;14.00;;;;;;;;;;10579684;27;20078;-87
2023/02/23 19:20:37;;;;;;;19.50;11.73;;;;;;;;;;10564868;27;20051;-88
2023/02/23 19:25:47;;;;;;;15.07;9.77;;;;;;;;;;10576265;27;20032;-88
2023/02/23 19:31:02;;;;;;;13.95;8.27;;;;;;;;;;10580621;27;20028;-88
2023/02/23 19:36:07;;;;;;;14.93;9.27;;;;;;;;;;10571269;27;20040;-90
2023/02/23 19:41:14;;;;;;;13.68;8.15;;;;;;;;;;10573098;27;20047;-89
2023/02/23 19:46:19;;;;;;;17.25;10.55;;;;;;;;;;10591890;27;20055;-89
2023/02/23 19:51:26;;;;;;;13.50;8.07;;;;;;;;;;10576251;27;20064;-89
2023/02/23 19:56:32;;;;;;;16.35;9.35;;;;;;;;;;10568699;27;20088;-86
2023/02/23 20:01:36;;;;;;;17.60;10.15;;;;;;;;;;10563631;27;20100;-88
2023/02/23 20:06:45;;;;;;;12.38;8.02;;;;;;;;;;10588666;27;20043;-87
2023/02/23 20:11:51;;;;;;;16.85;10.50;;;;;;;;;;10567807;27;20118;-88
2023/02/23 20:16:54;;;;;;;19.23;10.95;;;;;;;;;;10600379;27;20031;-87
2023/02/23 20:21:58;;;;;;;17.35;10.63;;;;;;;;;;10580324;27;20046;-87
2023/02/23 20:27:03;;;;;;;15.95;9.18;;;;;;;;;;10584871;27;20047;-89
2023/02/23 20:32:07;;;;;;;16.00;9.30;;;;;;;;;;10585840;27;20035;-85
2023/02/23 20:37:11;;;;;;;17.00;9.20;;;;;;;;;;10596016;27;20055;-85
2023/02/23 20:42:16;;;;;;;22.35;11.27;;;;;;;;;;10567639;27;20036;-85
2023/02/23 20:47:21;;;;;;;24.73;13.82;;;;;;;;;;10577542;27;20043;-84
2023/02/23 20:52:25;;;;;;;19.17;11.13;;;;;;;;;;10578486;27;20545;-85
2023/02/23 20:57:30;;;;;;;14.25;9.25;;;;;;;;;;10569078;27;20074;-85
2023/02/23 21:02:34;;;;;;;18.23;10.93;;;;;;;;;;10597813;27;20044;-85
2023/02/23 21:07:37;;;;;;;21.23;12.95;;;;;;;;;;10577402;28;20165;-85
2023/02/23 21:12:42;;;;;;;25.27;14.98;;;;;;;;;;10580900;28;20091;-89
2023/02/23 21:17:46;;;;;;;16.02;10.35;;;;;;;;;;10587707;28;20111;-88
2023/02/23 21:22:50;;;;;;;12.80;8.23;;;;;;;;;;10582091;28;20043;-88
2023/02/23 21:27:56;;;;;;;12.50;7.55;;;;;;;;;;10618339;28;20122;-87
2023/02/23 21:32:59;;;;;;;12.88;8.20;;;;;;;;;;10589665;28;20077;-86
2023/02/23 21:38:03;;;;;;;9.43;6.25;;;;;;;;;;10579217;28;20482;-87
2023/02/23 21:43:11;;;;;;;11.00;6.90;;;;;;;;;;10586993;28;20513;-87
2023/02/23 21:48:17;;;;;;;11.95;7.68;;;;;;;;;;10605680;28;20079;-87
2023/02/23 21:53:20;;;;;;;15.20;9.13;;;;;;;;;;10586106;28;20138;-87
2023/02/23 21:58:26;;;;;;;13.05;8.30;;;;;;;;;;10585477;28;20134;-85
2023/02/23 22:03:31;;;;;;;12.13;7.10;;;;;;;;;;10573255;27;20043;-85
2023/02/23 22:08:35;;;;;;;10.07;5.97;;;;;;;;;;10577418;27;21003;-85
2023/02/23 22:13:40;;;;;;;12.52;7.32;;;;;;;;;;10591380;27;20271;-88
2023/02/23 22:18:44;;;;;;;9.68;5.93;;;;;;;;;;10598668;27;20138;-87
2023/02/23 22:23:49;;;;;;;11.27;6.60;;;;;;;;;;10580833;27;20585;-86
2023/02/23 22:28:53;;;;;;;8.57;5.47;;;;;;;;;;10590159;27;20060;-86
2023/02/23 22:33:57;;;;;;;11.80;6.97;;;;;;;;;;10598701;27;20047;-91
2023/02/23 22:39:03;;;;;;;10.70;6.43;;;;;;;;;;10608569;27;20077;-88
2023/02/23 22:44:12;;;;;;;12.70;7.10;;;;;;;;;;10596951;27;20140;-86
2023/02/23 22:49:18;;;;;;;11.73;6.38;;;;;;;;;;10539501;28;20101;-89
2023/02/23 22:54:23;;;;;;;11.90;6.35;;;;;;;;;;10547782;28;20139;-90
2023/02/23 22:59:29;;;;;;;11.75;6.78;;;;;;;;;;10543428;28;20082;-90
2023/02/23 23:04:33;;;;;;;;;;;;;;;;;;10548163;28;20503;-90
2023/02/23 23:09:38;;;;;;;9.80;5.70;;;;;;;;;;10546972;28;19924;-86
2023/02/23 23:14:44;;;;;;;10.35;6.20;;;;;;;;;;10542748;28;20036;-88
2023/02/23 23:19:49;;;;;;;10.02;6.13;;;;;;;;;;10556331;28;20054;-90
2023/02/23 23:24:55;;;;;;;17.75;9.32;;;;;;;;;;10562907;28;20047;-89
2023/02/23 23:30:04;;;;;;;13.48;7.43;;;;;;;;;;10543586;28;20054;-88
2023/02/23 23:35:12;;;;;;;12.10;7.22;;;;;;;;;;10552494;28;20418;-88
2023/02/23 23:40:16;;;;;;;11.50;7.00;;;;;;;;;;10551914;28;20084;-87
2023/02/23 23:45:23;;;;;;;14.02;8.23;;;;;;;;;;10565650;27;20069;-87
2023/02/23 23:50:27;;;;;;;13.38;7.53;;;;;;;;;;10583859;27;20091;-84
2023/02/23 23:55:31;;;;;;;16.05;8.45;;;;;;;;;;10572408;27;20063;-85
